createdAt,value
2023-03-06T00:02:11.533Z,5.30
2023-03-06T00:04:39.505Z,5.40
2023-03-06T00:07:06.769Z,5.10
2023-03-06T00:09:34.312Z,4.80
2023-03-06T00:12:04.432Z,6.00
2023-03-06T00:14:31.600Z,5.60
2023-03-06T00:16:58.948Z,5.30
2023-03-06T00:19:26.757Z,5.10
2023-03-06T00:21:56.412Z,5.90
2023-03-06T00:24:26.741Z,5.30
2023-03-06T00:26:54.809Z,5.80
2023-03-06T00:29:22.716Z,5.80
2023-03-06T00:31:53.101Z,5.80
2023-03-06T00:34:21.067Z,5.40
2023-03-06T00:36:48.524Z,5.70
2023-03-06T00:39:17.992Z,5.70
2023-03-06T00:41:47.120Z,6.30
2023-03-06T00:44:14.486Z,5.90
2023-03-06T00:46:42.042Z,5.50
2023-03-06T00:49:10.153Z,6.00
2023-03-06T00:51:37.973Z,6.30
2023-03-06T00:54:05.226Z,6.40
2023-03-06T00:56:36.788Z,5.80
2023-03-06T00:59:04.030Z,5.50
2023-03-06T01:01:31.185Z,6.40
2023-03-06T01:03:58.337Z,6.00
2023-03-06T01:06:26.927Z,6.30
2023-03-06T01:08:55.697Z,6.50
2023-03-06T01:11:26.351Z,6.90
2023-03-06T01:13:53.515Z,6.10
2023-03-06T01:16:21.798Z,6.60
2023-03-06T01:18:50.907Z,6.40
2023-03-06T01:21:17.975Z,6.60
2023-03-06T01:23:46.172Z,6.60
2023-03-06T01:26:13.729Z,6.70
2023-03-06T01:28:41.110Z,6.40
2023-03-06T01:31:08.439Z,6.90
2023-03-06T01:33:35.903Z,6.60
2023-03-06T01:36:08.091Z,7.10
2023-03-06T01:38:35.932Z,7.10
2023-03-06T01:41:03.871Z,6.80
2023-03-06T01:43:35.864Z,6.30
2023-03-06T01:46:30.974Z,5.80
2023-03-06T01:48:58.097Z,6.50
2023-03-06T01:51:32.443Z,6.00
2023-03-06T01:54:02.234Z,6.30
2023-03-06T01:56:30.544Z,6.40
2023-03-06T01:58:59.895Z,7.00
2023-03-06T02:01:26.959Z,6.30
2023-03-06T02:03:54.331Z,6.40
2023-03-06T02:06:22.211Z,6.20
2023-03-06T02:08:50.583Z,7.30
2023-03-06T02:11:26.563Z,7.00
2023-03-06T02:13:54.252Z,7.10
2023-03-06T02:16:29.203Z,7.20
2023-03-06T02:18:57.452Z,7.00
2023-03-06T02:21:27.541Z,6.90
2023-03-06T02:24:33.297Z,7.10
2023-03-06T02:27:01.787Z,6.90
2023-03-06T02:29:34.962Z,6.60
2023-03-06T02:32:04.921Z,6.10
2023-03-06T02:34:37.857Z,7.00
2023-03-06T02:37:09.106Z,6.30
2023-03-06T02:39:39.859Z,6.10
2023-03-06T02:42:07.186Z,6.20
2023-03-06T02:44:34.752Z,6.60
2023-03-06T09:56:19.934Z,2.20
2023-03-06T09:58:57.463Z,1.90
2023-03-06T10:01:34.868Z,2.40
2023-03-06T10:04:35.711Z,2.10
2023-03-06T10:07:07.410Z,3.20
2023-03-06T10:09:42.799Z,2.90
2023-03-06T10:12:25.130Z,2.40
2023-03-06T10:17:25.850Z,2.00
2023-03-06T10:19:53.597Z,2.00
2023-03-06T10:22:32.916Z,2.60
2023-03-06T10:25:00.382Z,2.60
2023-03-06T10:27:56.608Z,2.60
2023-03-06T10:30:48.357Z,3.10
2023-03-06T10:33:23.102Z,2.90
2023-03-06T10:35:54.657Z,2.80
2023-03-06T10:38:26.366Z,3.00
2023-03-06T10:41:11.026Z,3.90
2023-03-06T10:43:43.774Z,3.50
2023-03-06T10:46:13.153Z,4.10
2023-03-06T10:48:42.275Z,4.30
2023-03-06T10:51:19.348Z,4.50
2023-03-06T10:54:03.233Z,3.70
2023-03-06T10:56:35.467Z,4.60
2023-03-06T11:01:41.575Z,2.90
2023-03-06T11:04:25.481Z,4.30
2023-03-06T11:07:08.644Z,3.60
2023-03-06T11:09:36.721Z,3.50
2023-03-06T11:12:22.715Z,4.00
2023-03-06T11:15:08.490Z,3.90
2023-03-06T11:17:57.693Z,3.10
2023-03-06T11:20:53.281Z,3.40
2023-03-06T11:23:26.372Z,5.90
2023-03-06T11:26:13.216Z,3.80
2023-03-06T11:28:44.569Z,3.30
2023-03-06T11:31:22.444Z,4.10
2023-03-06T11:33:53.162Z,4.10
2023-03-06T11:36:26.184Z,3.60
2023-03-06T11:38:53.605Z,3.60
2023-03-06T11:41:44.544Z,3.60
2023-03-06T11:44:39.578Z,3.70
2023-03-06T11:47:11.642Z,3.30
2023-03-06T11:50:10.283Z,3.90
2023-03-06T11:52:43.761Z,3.70
2023-03-06T11:55:16.337Z,3.90
2023-03-06T11:58:10.537Z,3.70
2023-03-06T12:00:52.430Z,3.50
2023-03-06T12:03:25.508Z,3.80
2023-03-06T12:06:32.800Z,4.40
2023-03-06T12:09:24.738Z,4.00
2023-03-06T12:12:29.594Z,3.60
2023-03-06T12:15:22.924Z,3.90
2023-03-06T12:17:55.390Z,3.90
2023-03-06T12:20:30.886Z,4.40
2023-03-06T12:23:17.603Z,3.70
2023-03-06T12:26:22.638Z,4.80
2023-03-06T12:29:08.584Z,5.40
2023-03-06T12:31:54.876Z,4.50
2023-03-06T12:34:48.028Z,5.00
2023-03-06T12:37:38.576Z,4.10
2023-03-06T12:40:25.866Z,5.20
2023-03-06T12:43:19.299Z,5.30
2023-03-06T12:48:18.010Z,4.70
2023-03-06T12:50:44.448Z,5.70
2023-03-06T12:53:22.782Z,5.00
2023-03-06T12:55:49.814Z,4.90
2023-03-06T12:58:29.883Z,4.30
2023-03-06T13:01:03.585Z,5.00
2023-03-06T13:03:48.564Z,5.40
2023-03-06T13:06:49.916Z,5.30
2023-03-06T13:09:26.113Z,4.50
2023-03-06T13:12:28.292Z,4.20
2023-03-06T13:15:18.746Z,3.80
2023-03-06T13:17:46.526Z,4.70
2023-03-06T13:20:13.944Z,5.10
2023-03-06T13:22:44.932Z,5.40
2023-03-06T13:25:21.519Z,5.90
2023-03-06T13:27:55.154Z,5.50
2023-03-06T13:30:45.138Z,5.80
2023-03-06T13:33:29.528Z,5.50
2023-03-06T13:35:57.132Z,5.40
2023-03-06T13:38:32.735Z,4.90
2023-03-06T13:41:24.642Z,5.70
2023-03-06T13:43:52.887Z,5.50
2023-03-06T13:46:25.756Z,5.30
2023-03-06T13:49:08.130Z,4.70
2023-03-06T13:52:04.634Z,5.60
2023-03-06T13:54:53.909Z,5.00
2023-03-06T13:57:39.018Z,5.20
2023-03-06T14:00:40.911Z,5.00
2023-03-06T14:03:10.267Z,4.80
2023-03-06T14:05:44.715Z,4.80
2023-03-06T14:08:15.629Z,5.80
2023-03-06T14:10:43.021Z,5.40
2023-03-06T14:13:15.234Z,5.10
2023-03-06T14:15:45.179Z,4.80
2023-03-06T14:18:19.349Z,4.90
2023-03-06T14:20:49.488Z,5.70
2023-03-06T14:23:26.578Z,5.80
2023-03-06T14:26:17.250Z,5.00
2023-03-06T14:28:55.409Z,4.60
2023-03-06T14:31:27.260Z,5.10
2023-03-06T14:34:04.608Z,4.90
2023-03-06T14:36:48.321Z,4.80
2023-03-06T14:39:38.287Z,4.70
2023-03-06T14:42:21.292Z,5.30
2023-03-06T14:44:49.443Z,4.70
2023-03-06T14:47:27.534Z,4.70
2023-03-06T14:50:19.569Z,5.10
2023-03-06T14:52:46.230Z,5.30
2023-03-06T14:55:20.696Z,5.80
2023-03-06T14:57:49.323Z,6.40
2023-03-06T15:00:19.250Z,5.40
2023-03-06T15:02:46.447Z,5.70
2023-03-06T15:05:30.489Z,5.80
2023-03-06T15:08:02.629Z,5.30
2023-03-06T15:10:35.322Z,5.50
2023-03-06T15:13:20.609Z,4.90
2023-03-06T15:16:07.240Z,4.60
2023-03-06T15:18:53.556Z,5.30
2023-03-06T15:21:22.062Z,6.20
2023-03-06T15:23:52.678Z,5.60
2023-03-06T15:26:21.427Z,5.60
2023-03-06T15:29:10.599Z,5.70
2023-03-06T15:31:42.714Z,5.30
2023-03-06T15:34:09.522Z,5.90
2023-03-06T15:36:43.387Z,6.00
2023-03-06T15:39:31.376Z,6.00
2023-03-06T15:42:08.017Z,6.10
2023-03-06T15:44:35.464Z,7.00
2023-03-06T15:47:08.880Z,5.50
2023-03-06T15:49:38.293Z,5.90
2023-03-06T15:52:07.664Z,5.60
2023-03-06T15:54:34.999Z,6.10
2023-03-06T15:57:05.761Z,5.90
2023-03-06T15:59:32.514Z,6.10
2023-03-06T16:02:07.673Z,6.10
2023-03-06T16:04:34.286Z,6.00
2023-03-06T16:07:01.446Z,5.10
2023-03-06T16:09:27.917Z,5.70
2023-03-06T16:11:55.774Z,5.50
2023-03-06T16:14:23.248Z,6.30
2023-03-06T16:16:51.908Z,7.00
2023-03-06T16:19:26.233Z,6.70
2023-03-06T16:21:54.365Z,7.30
2023-03-06T16:24:21.426Z,7.00
2023-03-06T16:26:52.554Z,7.90
2023-03-06T16:29:23.011Z,7.90
2023-03-06T16:31:49.502Z,8.90
2023-03-06T16:34:19.054Z,8.00
2023-03-06T16:36:50.053Z,7.50
2023-03-06T16:39:21.751Z,7.40
2023-03-06T16:41:49.756Z,7.50
2023-03-06T16:44:17.300Z,7.60
2023-03-06T16:46:46.009Z,7.40
2023-03-06T16:49:23.559Z,7.40
2023-03-06T16:51:51.107Z,7.10
2023-03-06T16:54:18.320Z,7.70
2023-03-06T16:56:44.982Z,7.70
2023-03-06T16:59:15.653Z,7.70
2023-03-06T17:01:43.211Z,7.80
2023-03-06T17:04:10.615Z,8.80
2023-03-06T17:06:37.652Z,8.10
2023-03-06T17:09:05.094Z,9.50
2023-03-06T17:11:31.951Z,12.90
2023-03-06T17:14:01.661Z,15.10
2023-03-06T17:16:28.303Z,19.60
2023-03-06T17:18:54.616Z,17.00
2023-03-06T17:21:25.921Z,14.20
2023-03-06T17:23:53.176Z,13.40
2023-03-06T17:26:20.771Z,13.10
2023-03-06T17:28:48.247Z,13.00
2023-03-06T17:31:15.855Z,11.90
2023-03-06T17:33:43.107Z,11.10
2023-03-06T17:36:10.295Z,11.70
2023-03-06T17:38:38.838Z,14.40
2023-03-06T17:41:06.312Z,17.40
2023-03-06T17:43:33.244Z,17.20
2023-03-06T17:46:11.195Z,17.00
2023-03-06T17:48:38.381Z,17.10
2023-03-06T17:51:06.152Z,16.90
2023-03-06T17:53:33.256Z,17.70
2023-03-06T17:56:03.376Z,18.30
2023-03-06T17:58:30.875Z,19.40
2023-03-06T18:00:57.944Z,17.90
2023-03-06T18:03:27.014Z,16.60
2023-03-06T18:06:00.662Z,18.70
2023-03-06T18:08:31.815Z,18.90
2023-03-06T18:11:05.736Z,18.80
2023-03-06T18:13:33.236Z,18.40
2023-03-06T18:16:01.773Z,17.40
2023-03-06T18:18:28.306Z,20.30
2023-03-06T18:20:55.333Z,19.00
2023-03-06T18:23:22.182Z,20.20
2023-03-06T18:25:50.007Z,19.60
2023-03-06T18:28:16.985Z,17.60
2023-03-06T18:30:43.748Z,18.80
2023-03-06T18:33:12.280Z,19.00
2023-03-06T18:35:40.131Z,19.20
2023-03-06T18:38:06.987Z,20.20
2023-03-06T18:40:34.014Z,19.80
2023-03-06T18:43:01.200Z,21.80
2023-03-06T18:45:27.895Z,20.60
2023-03-06T18:47:54.813Z,21.80
2023-03-06T18:50:29.715Z,18.70
2023-03-06T18:52:56.678Z,19.90
2023-03-06T18:55:22.960Z,19.60
2023-03-06T18:57:50.838Z,20.20
2023-03-06T19:00:19.590Z,19.00
2023-03-06T19:02:46.772Z,19.00
2023-03-06T19:05:13.956Z,16.80
2023-03-06T19:07:42.410Z,17.40
2023-03-06T19:10:09.666Z,17.60
2023-03-06T19:12:36.672Z,17.20
2023-03-06T19:15:04.012Z,15.90
2023-03-06T19:17:31.594Z,16.90
2023-03-06T19:20:02.530Z,16.10
2023-03-06T19:22:29.975Z,16.10
2023-03-06T19:25:03.821Z,17.40
2023-03-06T19:27:32.007Z,18.70
2023-03-06T19:29:58.946Z,18.90
2023-03-06T19:32:25.545Z,16.60
2023-03-06T19:34:52.786Z,18.60
2023-03-06T19:37:20.216Z,17.10
2023-03-06T19:39:47.184Z,17.40
2023-03-06T19:42:14.851Z,18.10
2023-03-06T19:44:41.947Z,17.90
2023-03-06T19:47:08.772Z,18.80
2023-03-06T19:49:37.989Z,17.60
2023-03-06T19:52:06.214Z,19.20
2023-03-06T19:54:34.437Z,18.30
2023-03-06T19:57:01.114Z,17.70
2023-03-06T19:59:27.609Z,18.70
2023-03-06T20:01:54.268Z,18.00
2023-03-06T20:04:21.496Z,19.00
2023-03-06T20:06:49.082Z,17.80
2023-03-06T20:09:21.245Z,17.20
2023-03-06T20:11:48.377Z,18.20
2023-03-06T20:14:17.710Z,18.30
2023-03-06T20:16:44.058Z,19.60
2023-03-06T20:19:14.934Z,19.30
2023-03-06T20:21:41.306Z,20.00
2023-03-06T20:24:08.121Z,17.70
2023-03-06T20:26:36.559Z,19.30
2023-03-06T20:29:03.348Z,18.30
2023-03-06T20:31:31.603Z,17.50
2023-03-06T20:33:58.926Z,17.00
2023-03-06T20:36:44.433Z,17.00
2023-03-06T20:39:13.239Z,16.80
2023-03-06T20:41:40.277Z,17.80
2023-03-06T20:44:08.145Z,16.60
2023-03-06T20:46:34.560Z,17.40
2023-03-06T20:49:04.314Z,17.10
2023-03-06T20:51:32.100Z,17.70
2023-03-06T20:54:00.060Z,18.40
2023-03-06T20:56:31.042Z,17.50
2023-03-06T20:58:57.754Z,17.10
2023-03-06T21:01:26.238Z,17.10
2023-03-06T21:03:53.414Z,16.40
2023-03-06T21:06:20.335Z,16.20
2023-03-06T21:08:47.078Z,17.50
2023-03-06T21:11:13.408Z,17.30
2023-03-06T21:13:41.113Z,16.40
2023-03-06T21:16:16.008Z,16.90
2023-03-06T21:18:47.966Z,15.90
2023-03-06T21:21:19.315Z,17.30
2023-03-06T21:23:46.450Z,16.70
2023-03-06T21:26:16.225Z,15.90
2023-03-06T21:28:44.324Z,16.80
2023-03-06T21:31:11.854Z,16.30
2023-03-06T21:33:39.432Z,15.80
2023-03-06T21:36:06.680Z,14.50
2023-03-06T21:38:35.592Z,15.20
2023-03-06T21:41:09.305Z,13.70
2023-03-06T21:43:39.441Z,14.80
2023-03-06T21:46:05.947Z,15.40
2023-03-06T21:48:32.526Z,14.00
2023-03-06T21:51:09.385Z,14.40
2023-03-06T21:53:36.371Z,14.40
2023-03-06T21:56:03.868Z,13.50
2023-03-06T21:58:30.258Z,13.90
2023-03-06T22:01:00.028Z,15.70
2023-03-06T22:03:28.029Z,16.50
2023-03-06T22:05:55.913Z,14.70
2023-03-06T22:08:24.435Z,13.20
2023-03-06T22:14:50.095Z,13.80
2023-03-06T22:17:17.294Z,14.00
2023-03-06T22:19:44.677Z,15.40
2023-03-06T22:22:14.229Z,15.80
2023-03-06T22:24:43.703Z,15.50
2023-03-06T22:27:10.807Z,15.30
2023-03-06T22:29:38.063Z,15.20
2023-03-06T22:32:05.617Z,14.80
2023-03-06T22:34:32.845Z,14.10
2023-03-06T22:37:19.865Z,13.20
2023-03-06T22:39:50.496Z,13.30
2023-03-06T22:42:17.751Z,13.30
2023-03-06T22:44:44.709Z,12.60
2023-03-06T22:47:11.936Z,14.30
2023-03-06T22:49:39.424Z,14.10
2023-03-06T22:52:07.154Z,14.90
2023-03-06T22:54:34.919Z,14.80
2023-03-06T22:57:01.871Z,15.20
2023-03-06T22:59:29.192Z,14.20
2023-03-06T23:02:03.819Z,15.20
2023-03-06T23:04:31.238Z,15.70
2023-03-06T23:06:59.329Z,14.90
2023-03-06T23:09:27.163Z,16.00
2023-03-06T23:12:12.938Z,15.70
2023-03-06T23:14:59.882Z,15.80
2023-03-06T23:17:46.139Z,15.50
2023-03-06T23:20:33.459Z,14.90
2023-03-06T23:23:20.237Z,13.60
2023-03-06T23:25:47.530Z,15.00
2023-03-06T23:28:14.986Z,14.30
2023-03-06T23:30:42.477Z,15.10
2023-03-06T23:33:10.458Z,14.30
2023-03-06T23:35:40.570Z,13.20
2023-03-06T23:38:08.221Z,14.60
2023-03-06T23:40:36.414Z,13.40
2023-03-06T23:43:03.958Z,13.70
2023-03-06T23:45:33.642Z,14.10
2023-03-06T23:48:02.150Z,14.00
2023-03-06T23:50:29.467Z,14.10
2023-03-06T23:52:58.460Z,13.20
2023-03-06T23:55:27.158Z,13.20
2023-03-06T23:57:54.131Z,12.50
